Time;durP1;ratioP1;P1;durP2;ratioP2;P2;SDS_P1;SDS_P2;PMS_P1;PMS_P2;Temp;Humidity;BMP_temperature;BMP_pressure;BME280_temperature;BME280_humidity;BME280_pressure;Samples;Min_cycle;Max_cycle;Signal;HPM_P1;HPM_P2
2024/03/07 06:37:47;;;;;;;;;;;;;;;2.83;100.00;102051.66;6093412;23;20022;-89
2024/03/07 06:40:20;;;;;;;65.80;29.93;;;;;;;2.80;100.00;102050.69;6070293;23;19955;-90
2024/03/07 06:42:52;;;;;;;85.37;34.67;;;;;;;2.70;100.00;102056.44;6070125;23;20021;-90
2024/03/07 06:45:19;;;;;;;75.27;33.63;;;;;;;2.88;100.00;102064.88;6070223;23;20026;-88
2024/03/07 06:47:47;;;;;;;78.00;32.90;;;;;;;2.85;100.00;102053.44;6069552;23;20101;-90
2024/03/07 06:50:19;;;;;;;67.37;31.17;;;;;;;2.92;100.00;102066.75;6069827;23;20026;-89
2024/03/07 06:53:03;;;;;;;71.13;29.40;;;;;;;2.82;100.00;102065.56;6051883;23;20480;-89
2024/03/07 06:55:30;;;;;;;75.57;31.90;;;;;;;3.03;100.00;102065.41;6069298;23;20026;-90
2024/03/07 06:57:58;;;;;;;67.80;32.00;;;;;;;2.99;100.00;102067.84;6093109;23;20022;-89
2024/03/07 07:00:26;;;;;;;64.10;27.80;;;;;;;2.91;100.00;102058.88;6069795;23;20330;-90
2024/03/07 07:02:54;;;;;;;62.87;29.33;;;;;;;2.85;100.00;102066.47;6070694;23;20018;-90
2024/03/07 07:05:23;;;;;;;67.87;29.23;;;;;;;2.85;100.00;102075.19;6069837;23;20026;-90
2024/03/07 07:07:53;;;;;;;58.57;26.87;;;;;;;3.04;100.00;102069.78;6119768;23;20014;-89
2024/03/07 07:10:23;;;;;;;52.47;24.70;;;;;;;2.91;100.00;102069.31;6094479;23;20261;-90
2024/03/07 07:12:54;;;;;;;54.93;24.07;;;;;;;2.91;100.00;102071.91;6046995;23;20100;-90
2024/03/07 07:15:22;;;;;;;50.83;24.60;;;;;;;2.87;100.00;102070.94;6046346;23;20530;-90
2024/03/07 07:17:50;;;;;;;51.53;23.93;;;;;;;2.85;100.00;102066.47;6070186;23;20299;-91
2024/03/07 07:20:17;;;;;;;50.20;23.03;;;;;;;3.03;100.00;102072.34;6093324;23;20033;-89
2024/03/07 07:22:47;;;;;;;44.43;22.37;;;;;;;2.95;100.00;102068.59;6094114;23;20022;-90
2024/03/07 07:25:14;;;;;;;45.90;21.40;;;;;;;3.10;100.00;102075.16;6045478;23;20112;-90
2024/03/07 07:27:45;;;;;;;39.40;19.57;;;;;;;3.11;100.00;102076.06;6045597;23;20025;-89
2024/03/07 07:30:17;;;;;;;37.37;19.47;;;;;;;3.04;100.00;102068.88;6092898;23;20112;-89
2024/03/07 07:32:45;;;;;;;35.03;19.03;;;;;;;3.08;100.00;102073.34;6070959;23;20022;-89
2024/03/07 07:35:12;;;;;;;33.20;17.77;;;;;;;3.18;100.00;102070.19;6070830;23;20041;-89
2024/03/07 07:37:40;;;;;;;34.70;18.00;;;;;;;3.15;100.00;102072.72;6094113;23;20088;-90
2024/03/07 07:40:09;;;;;;;30.43;18.17;;;;;;;3.25;100.00;102072.19;6197100;23;20022;-90
2024/03/07 07:42:38;;;;;;;28.53;15.43;;;;;;;3.39;100.00;102077.84;6070596;23;20049;-89
2024/03/07 07:45:12;;;;;;;31.67;15.87;;;;;;;3.68;93.32;102074.38;6071567;23;20049;-89
2024/03/07 07:47:58;;;;;;;27.33;15.20;;;;;;;3.84;91.99;102073.13;6095086;23;20080;-90
2024/03/07 07:50:26;;;;;;;26.00;14.93;;;;;;;4.06;91.66;102068.53;6094899;23;20048;-90
2024/03/07 07:52:56;;;;;;;25.07;14.67;;;;;;;4.28;90.07;102070.00;6070923;23;20076;-89
2024/03/07 07:55:25;;;;;;;25.57;15.23;;;;;;;4.38;87.13;102066.81;6070651;23;20026;-90
2024/03/07 07:57:58;;;;;;;27.00;14.77;;;;;;;4.56;85.56;102055.97;6196031;23;20028;-90
2024/03/07 08:00:28;;;;;;;28.00;14.32;;;;;;;4.89;84.87;102056.81;6095408;23;20022;-90
2024/03/07 08:03:08;;;;;;;25.13;14.87;;;;;;;5.09;84.53;102060.81;6072157;23;20045;-91
2024/03/07 08:05:37;;;;;;;24.53;14.47;;;;;;;5.03;75.18;102054.53;6094770;23;20033;-90
2024/03/07 08:08:08;;;;;;;25.50;13.40;;;;;;;5.24;75.46;102057.69;6072015;23;20028;-90
2024/03/07 08:10:37;;;;;;;21.93;12.23;;;;;;;5.35;72.13;102060.53;6072156;23;20026;-91
2024/03/07 08:13:13;;;;;;;22.00;13.23;;;;;;;5.52;74.17;102059.19;6071175;23;20026;-89
2024/03/07 08:15:41;;;;;;;23.43;12.63;;;;;;;5.65;73.14;102063.88;6097905;23;20053;-88
2024/03/07 08:18:09;;;;;;;23.40;12.07;;;;;;;5.83;68.11;102052.88;6080638;23;20014;-89
2024/03/07 08:20:38;;;;;;;23.07;13.03;;;;;;;6.01;68.88;102059.41;6047718;23;20484;-92
2024/03/07 08:23:07;;;;;;;23.27;12.50;;;;;;;6.19;67.64;102065.91;6071684;23;20049;-90
2024/03/07 08:25:34;;;;;;;19.90;11.70;;;;;;;6.30;66.38;102049.47;6069777;23;20042;-91
2024/03/07 08:28:01;;;;;;;21.30;12.07;;;;;;;6.55;64.12;102058.69;6069895;23;20469;-88
2024/03/07 08:30:28;;;;;;;21.20;12.63;;;;;;;6.72;64.60;102054.63;6069970;23;20022;-90
2024/03/07 08:32:58;;;;;;;22.70;11.93;;;;;;;6.51;62.80;102059.50;6070423;23;20022;-90
2024/03/07 08:35:26;;;;;;;18.17;10.63;;;;;;;6.91;63.31;102059.34;6070783;23;20026;-91
2024/03/07 08:37:54;;;;;;;18.00;11.53;;;;;;;7.18;61.57;102072.06;6094570;23;20072;-90
2024/03/07 08:40:30;;;;;;;19.17;11.30;;;;;;;7.17;60.66;102064.16;6070748;23;20245;-92
2024/03/07 08:42:59;;;;;;;17.17;10.90;;;;;;;7.27;59.93;102071.31;6071074;23;20036;-91
2024/03/07 08:45:27;;;;;;;17.17;11.07;;;;;;;7.32;60.49;102067.91;6070789;23;20029;-92
2024/03/07 08:47:56;;;;;;;21.53;11.73;;;;;;;7.34;58.65;102060.94;6071093;23;20037;-90
2024/03/07 08:50:26;;;;;;;48.70;31.67;;;;;;;7.37;60.33;102065.34;6072121;23;20045;-92
2024/03/07 08:52:57;;;;;;;21.00;13.27;;;;;;;7.55;57.64;102060.34;6070667;23;20049;-91
2024/03/07 08:55:25;;;;;;;16.57;10.87;;;;;;;7.31;57.02;102057.34;6094398;23;20330;-92
2024/03/07 08:57:53;;;;;;;40.83;24.30;;;;;;;7.44;59.08;102055.81;6070369;23;20045;-91
2024/03/07 09:00:29;;;;;;;18.63;12.47;;;;;;;6.91;57.65;102068.97;6070358;23;20357;-90
2024/03/07 09:02:58;;;;;;;18.10;10.50;;;;;;;7.29;58.33;102062.59;6071685;23;20018;-90
2024/03/07 09:05:29;;;;;;;17.73;11.20;;;;;;;7.42;57.32;102057.53;6071295;23;20034;-91
2024/03/07 09:07:58;;;;;;;15.67;10.80;;;;;;;7.38;57.36;102058.31;6046255;23;20022;-90
2024/03/07 09:10:25;;;;;;;17.77;11.03;;;;;;;7.69;57.59;102057.03;6195393;23;20025;-91
2024/03/07 09:12:54;;;;;;;19.73;10.50;;;;;;;7.75;55.59;102055.38;6120536;23;20033;-90
2024/03/07 09:15:22;;;;;;;16.43;10.57;;;;;;;7.49;55.12;102054.13;6100286;23;20036;-91
2024/03/07 09:17:50;;;;;;;17.43;11.17;;;;;;;7.80;55.82;102050.16;6071612;23;20025;-92
2024/03/07 09:20:21;;;;;;;18.17;10.90;;;;;;;7.69;55.66;102050.03;6070938;23;20026;-90
2024/03/07 09:22:50;;;;;;;18.80;11.47;;;;;;;7.97;54.92;102045.09;6094779;23;20022;-90
2024/03/07 09:25:18;;;;;;;15.87;10.90;;;;;;;8.19;54.89;102055.03;6046710;23;20182;-91
2024/03/07 09:27:46;;;;;;;18.13;11.00;;;;;;;8.31;53.03;102042.00;6047369;23;20022;-92
2024/03/07 09:30:24;;;;;;;15.57;10.43;;;;;;;8.15;52.96;102047.97;6117858;22;20029;-89
2024/03/07 09:32:51;;;;;;;18.27;10.80;;;;;;;8.51;54.40;102044.00;6124341;23;20064;-88
2024/03/07 09:35:18;;;;;;;18.30;10.97;;;;;;;8.03;52.66;102053.09;6123314;23;20025;-86
2024/03/07 09:37:46;;;;;;;17.00;10.83;;;;;;;7.93;54.34;102038.06;6099162;23;20344;-90
2024/03/07 09:40:14;;;;;;;18.57;12.03;;;;;;;8.05;54.34;102041.69;6123024;23;20021;-89
2024/03/07 09:42:47;;;;;;;18.87;10.60;;;;;;;8.44;53.58;102043.94;6199034;23;20060;-89
2024/03/07 09:45:22;;;;;;;19.73;10.93;;;;;;;8.60;52.89;102042.34;6122574;23;20045;-89
2024/03/07 09:47:51;;;;;;;;;;;;;;;8.71;51.38;102037.19;6099678;23;20026;-90
2024/03/07 09:50:23;;;;;;;16.13;10.47;;;;;;;8.90;51.38;102028.53;6198080;23;19917;-90
2024/03/07 09:52:52;;;;;;;17.53;10.27;;;;;;;8.72;50.67;102037.19;6237526;23;20021;-92
2024/03/07 09:55:23;;;;;;;16.93;9.67;;;;;;;8.37;50.25;102031.56;6128672;23;20329;-90
2024/03/07 09:57:55;;;;;;;20.17;11.43;;;;;;;8.43;51.38;102031.66;6123173;23;20329;-90
2024/03/07 10:00:25;;;;;;;14.60;10.17;;;;;;;8.53;50.27;102032.63;6222700;23;20025;-89
2024/03/07 10:03:02;;;;;;;18.67;10.83;;;;;;;8.60;50.20;102028.28;6248489;22;20021;-89
2024/03/07 10:05:29;;;;;;;;;;;;;;;8.92;51.22;102040.00;6124345;23;20052;-89
2024/03/07 10:07:57;;;;;;;18.00;10.50;;;;;;;9.00;50.58;102032.16;6250271;22;19921;-90
2024/03/07 10:10:24;;;;;;;16.57;12.07;;;;;;;8.62;51.20;102037.97;6123019;23;20026;-91
2024/03/07 10:12:53;;;;;;;16.70;12.63;;;;;;;8.61;50.97;102030.06;6098810;23;20027;-90
2024/03/07 10:15:22;;;;;;;16.63;10.23;;;;;;;8.60;50.25;102026.53;6223471;23;20026;-90
2024/03/07 10:17:50;;;;;;;16.60;10.17;;;;;;;8.76;51.23;102034.59;6123945;23;20018;-89
2024/03/07 10:20:22;;;;;;;18.30;10.40;;;;;;;8.81;50.71;102027.59;6099535;23;20018;-90
2024/03/07 10:22:50;;;;;;;18.00;11.27;;;;;;;9.00;50.21;102027.78;6198008;23;20072;-89
2024/03/07 10:25:19;;;;;;;17.23;10.30;;;;;;;8.74;50.30;102029.28;6225719;23;20021;-89
2024/03/07 10:27:50;;;;;;;18.07;11.80;;;;;;;8.32;50.95;102030.59;6123253;23;20333;-90
2024/03/07 10:30:23;;;;;;;19.57;11.30;;;;;;;8.35;52.37;102028.06;6147264;23;20526;-91
2024/03/07 10:32:58;;;;;;;16.90;11.38;;;;;;;8.57;51.46;102028.25;6099600;23;20117;-89
2024/03/07 10:35:28;;;;;;;17.30;11.10;;;;;;;8.01;51.99;102025.88;6222355;23;20053;-89
2024/03/07 10:38:00;;;;;;;15.47;10.33;;;;;;;7.74;50.05;102024.66;6222521;22;20025;-90
2024/03/07 10:40:29;;;;;;;16.90;10.20;;;;;;;8.03;51.07;102030.28;6199203;23;20356;-89
2024/03/07 10:43:02;;;;;;;18.43;11.27;;;;;;;7.81;51.00;102022.97;6074574;23;20025;-89
2024/03/07 10:45:34;;;;;;;17.27;10.67;;;;;;;8.22;50.54;102012.94;6245870;22;20048;-90
2024/03/07 10:48:03;;;;;;;20.27;11.17;;;;;;;7.91;50.78;102017.00;6222550;22;20396;-89
2024/03/07 10:51:05;;;;;;;15.20;9.93;;;;;;;8.56;51.82;102016.81;6098638;23;20492;-90
2024/03/07 10:53:47;;;;;;;16.90;11.63;;;;;;;8.05;50.19;102017.13;6123143;23;20029;-90
2024/03/07 10:56:33;;;;;;;19.73;11.10;;;;;;;8.21;50.90;102011.19;6122200;23;20049;-91
2024/03/07 10:59:07;;;;;;;18.10;10.43;;;;;;;8.15;50.05;102005.84;6121938;23;20100;-89
2024/03/07 11:01:39;;;;;;;17.40;10.40;;;;;;;8.59;51.53;102003.72;6122119;23;20025;-89
2024/03/07 11:04:07;;;;;;;17.97;10.33;;;;;;;8.73;49.10;101998.53;6098123;23;20029;-90
2024/03/07 11:06:36;;;;;;;15.60;10.17;;;;;;;8.75;49.10;101996.81;6226677;22;20033;-89
2024/03/07 11:09:10;;;;;;;17.97;10.43;;;;;;;8.59;48.00;102002.81;6123893;23;20049;-89
2024/03/07 11:11:43;;;;;;;14.35;9.93;;;;;;;8.33;47.51;101992.00;6123634;23;20068;-90
2024/03/07 11:14:11;;;;;;;15.53;10.13;;;;;;;8.81;47.91;101980.16;6100346;23;20101;-89
2024/03/07 11:16:40;;;;;;;16.97;9.87;;;;;;;8.84;47.64;101991.63;6200930;23;20029;-89
2024/03/07 11:19:27;;;;;;;14.57;9.73;;;;;;;9.29;47.58;101985.78;6099748;23;20039;-89
2024/03/07 11:21:56;;;;;;;15.70;9.47;;;;;;;9.17;46.50;101980.44;6124123;23;20071;-90
2024/03/07 11:24:24;;;;;;;16.53;9.47;;;;;;;9.27;45.86;101976.97;6075194;23;20079;-89
2024/03/07 11:26:53;;;;;;;14.88;9.52;;;;;;;9.34;45.55;101987.56;6098883;23;20030;-89
2024/03/07 11:29:43;;;;;;;14.13;8.85;;;;;;;9.62;47.21;101984.19;6123671;23;20044;-89
2024/03/07 11:32:14;;;;;;;19.33;10.30;;;;;;;9.03;46.63;101976.81;6123484;23;20026;-89
2024/03/07 11:34:46;;;;;;;15.50;10.02;;;;;;;9.23;46.44;101974.31;6124015;23;20021;-89
2024/03/07 11:37:24;;;;;;;15.70;9.60;;;;;;;8.61;46.49;101967.72;6222627;23;20021;-90
2024/03/07 11:39:53;;;;;;;12.27;9.50;;;;;;;8.78;47.90;101986.28;6099114;23;20464;-89
2024/03/07 11:42:28;;;;;;;14.35;9.43;;;;;;;9.20;47.62;101976.94;6075660;23;20117;-89
2024/03/07 11:44:57;;;;;;;15.30;9.67;;;;;;;9.23;46.61;101967.28;6099434;23;20029;-88
2024/03/07 11:47:35;;;;;;;15.17;9.70;;;;;;;8.64;46.06;101961.59;6099558;23;20009;-91
2024/03/07 11:50:08;;;;;;;14.97;9.50;;;;;;;8.90;47.01;101961.78;6123014;23;20026;-90
2024/03/07 11:52:36;;;;;;;18.90;10.23;;;;;;;9.14;46.77;101947.88;6136244;23;20006;-91
2024/03/07 11:55:03;;;;;;;14.02;9.38;;;;;;;9.23;45.95;101948.81;6127224;23;20029;-89
2024/03/07 11:57:35;;;;;;;17.08;9.75;;;;;;;9.16;45.92;101949.66;6123147;23;20125;-89
2024/03/07 12:00:08;;;;;;;13.60;8.73;;;;;;;8.87;45.45;101946.84;6099393;23;20072;-89
2024/03/07 12:02:37;;;;;;;13.63;8.65;;;;;;;9.08;45.59;101947.84;6076819;23;20029;-89
2024/03/07 12:05:08;;;;;;;14.23;9.88;;;;;;;9.32;46.52;101950.63;6123440;23;20022;-89
2024/03/07 12:07:36;;;;;;;15.13;9.63;;;;;;;9.44;46.59;101953.34;6099107;23;20096;-90
2024/03/07 12:10:06;;;;;;;13.23;9.65;;;;;;;9.61;45.62;101934.06;6099149;23;20105;-90
2024/03/07 12:12:34;;;;;;;16.05;10.90;;;;;;;9.56;45.01;101940.19;6100633;23;20017;-89
2024/03/07 12:15:09;;;;;;;17.00;11.35;;;;;;;9.84;45.53;101932.41;6099415;23;20025;-90
2024/03/07 12:17:36;;;;;;;17.42;10.57;;;;;;;9.49;45.52;101933.13;6122022;23;20018;-90
2024/03/07 12:20:24;;;;;;;15.13;10.05;;;;;;;9.70;45.23;101923.53;6122831;23;20049;-89
2024/03/07 12:22:56;;;;;;;16.92;10.57;;;;;;;9.38;45.22;101926.03;6103164;23;20583;-89
2024/03/07 12:25:24;;;;;;;16.38;11.20;;;;;;;8.89;44.84;101920.50;6223587;23;20396;-90
2024/03/07 12:28:16;;;;;;;13.88;10.27;;;;;;;9.53;46.34;101923.47;6122978;23;20391;-90
2024/03/07 12:30:50;;;;;;;15.13;9.18;;;;;;;9.27;45.16;101910.19;6219592;23;20388;-90
2024/03/07 12:33:25;;;;;;;15.40;9.90;;;;;;;9.48;45.39;101914.66;6122684;23;20530;-91
2024/03/07 12:36:00;;;;;;;15.93;11.07;;;;;;;9.26;45.33;101911.06;6099747;23;20524;-89
2024/03/07 12:38:35;;;;;;;16.55;10.57;;;;;;;9.18;44.21;101916.28;6245116;22;20024;-90
2024/03/07 12:41:07;;;;;;;15.48;11.32;;;;;;;9.31;45.99;101909.31;6195301;23;20058;-89
2024/03/07 12:43:35;;;;;;;14.13;9.48;;;;;;;9.50;45.00;101908.53;6106012;23;20025;-90
2024/03/07 12:46:05;;;;;;;14.35;9.35;;;;;;;9.82;45.40;101905.09;6099635;23;20506;-90
2024/03/07 12:48:33;;;;;;;17.88;10.80;;;;;;;9.65;45.01;101906.78;6124455;23;20380;-89
2024/03/07 12:51:01;;;;;;;14.05;9.40;;;;;;;9.61;45.18;101897.13;6099218;23;20028;-90
2024/03/07 12:53:29;;;;;;;12.32;8.98;;;;;;;9.45;43.80;101896.19;6201723;22;20021;-90
2024/03/07 12:55:56;;;;;;;13.70;9.20;;;;;;;9.71;43.71;101894.50;6123339;23;20303;-89
2024/03/07 12:58:25;;;;;;;14.38;9.52;;;;;;;9.84;44.90;101900.72;6098129;23;20483;-89
2024/03/07 13:00:55;;;;;;;13.65;9.43;;;;;;;9.90;45.56;101900.72;6122758;23;20021;-90
2024/03/07 13:03:29;;;;;;;14.05;9.82;;;;;;;9.56;44.31;101889.19;6124797;23;20025;-89
2024/03/07 13:06:01;;;;;;;15.98;10.40;;;;;;;8.94;44.64;101887.16;6101219;23;20494;-89
2024/03/07 13:08:29;;;;;;;17.05;9.82;;;;;;;9.21;45.85;101894.31;6075769;23;20025;-89
2024/03/07 13:10:58;;;;;;;17.60;10.38;;;;;;;9.41;45.37;101887.34;6099496;23;20028;-91
2024/03/07 13:13:27;;;;;;;28.30;11.38;;;;;;;9.20;45.13;101888.16;6100109;23;20071;-89
2024/03/07 13:15:54;;;;;;;15.20;9.70;;;;;;;9.36;45.34;101880.31;6122575;23;20022;-90
2024/03/07 13:18:22;;;;;;;17.58;11.20;;;;;;;9.32;46.08;101889.97;6099251;23;20021;-90
2024/03/07 13:20:50;;;;;;;16.20;10.52;;;;;;;9.21;45.00;101887.28;6098306;23;20341;-91
2024/03/07 13:23:17;;;;;;;18.33;11.07;;;;;;;9.01;45.41;101876.66;6098928;23;20321;-89
2024/03/07 13:25:45;;;;;;;18.65;10.52;;;;;;;9.27;46.55;101884.69;6074726;23;20064;-90
2024/03/07 13:28:16;;;;;;;16.58;10.85;;;;;;;9.16;45.75;101872.31;6146806;23;20021;-90
2024/03/07 13:30:44;;;;;;;16.25;9.98;;;;;;;9.21;46.21;101875.84;6098990;23;20028;-89
2024/03/07 13:33:11;;;;;;;18.27;11.00;;;;;;;9.31;46.52;101865.34;6148760;23;20026;-89
2024/03/07 13:35:39;;;;;;;15.85;10.13;;;;;;;9.36;46.63;101875.94;6122847;23;20082;-91
2024/03/07 13:38:07;;;;;;;18.40;10.70;;;;;;;9.32;45.40;101869.75;6098474;23;20250;-90
2024/03/07 13:40:38;;;;;;;16.17;10.85;;;;;;;9.38;46.38;101868.03;6224947;23;20028;-91
2024/03/07 13:43:06;;;;;;;13.83;9.70;;;;;;;9.38;45.78;101863.63;6123224;23;20021;-89
2024/03/07 13:45:43;;;;;;;17.88;11.95;;;;;;;9.23;45.06;101864.44;6098325;23;20031;-88
2024/03/07 13:48:14;;;;;;;19.67;11.20;;;;;;;9.20;46.01;101858.28;6216868;22;20052;-89
2024/03/07 13:50:44;;;;;;;15.70;10.20;;;;;;;9.16;45.99;101865.28;6196900;23;20028;-87
2024/03/07 13:53:47;;;;;;;19.25;10.95;;;;;;;9.31;46.79;101864.47;6147129;23;20032;-87
2024/03/07 13:56:31;;;;;;;14.82;10.13;;;;;;;9.38;46.45;101863.63;6122497;23;20060;-89
2024/03/07 13:59:04;;;;;;;17.83;10.68;;;;;;;9.33;45.07;101854.78;6098023;23;20026;-87
2024/03/07 14:01:41;;;;;;;15.15;9.52;;;;;;;9.08;45.59;101858.22;6097974;23;20022;-90
2024/03/07 14:04:27;;;;;;;15.30;10.10;;;;;;;9.24;46.74;101866.19;6122729;23;20411;-91
2024/03/07 14:07:18;;;;;;;17.58;10.35;;;;;;;9.17;45.52;101848.59;6098427;23;20028;-89
2024/03/07 14:10:21;;;;;;;17.02;10.40;;;;;;;9.00;44.60;101850.28;6250695;22;20021;-89
2024/03/07 14:13:26;;;;;;;14.02;9.38;;;;;;;8.99;45.73;101856.41;6150805;23;20022;-89
2024/03/07 14:16:00;;;;;;;14.52;9.73;;;;;;;9.05;45.36;101843.25;6099087;23;20024;-90
2024/03/07 14:18:31;;;;;;;13.55;8.80;;;;;;;9.05;46.10;101847.66;6122171;23;20018;-89
2024/03/07 14:21:17;;;;;;;15.73;9.75;;;;;;;9.08;45.31;101843.31;6149689;23;20029;-89
2024/03/07 14:23:50;;;;;;;15.27;10.25;;;;;;;8.97;46.39;101850.25;6124346;23;20075;-89
2024/03/07 14:26:45;;;;;;;14.73;9.47;;;;;;;8.93;46.74;101849.38;6125552;23;20445;-88
2024/03/07 14:29:26;;;;;;;15.02;10.40;;;;;;;8.89;46.84;101836.16;6137785;23;20414;-90
2024/03/07 14:31:53;;;;;;;15.07;9.43;;;;;;;8.89;47.22;101836.16;6140045;23;20041;-88
2024/03/07 14:34:29;;;;;;;15.85;10.20;;;;;;;8.96;47.70;101846.75;6117157;23;20052;-91
2024/03/07 14:37:04;;;;;;;24.55;15.30;;;;;;;8.88;47.79;101835.28;6141827;23;20021;-89
2024/03/07 14:39:35;;;;;;;17.63;11.67;;;;;;;8.91;48.84;101826.50;6257250;22;20457;-89
2024/03/07 14:42:09;;;;;;;18.63;10.93;;;;;;;8.91;48.84;101840.59;6229432;23;20043;-89
2024/03/07 14:44:39;;;;;;;16.55;10.68;;;;;;;8.88;49.09;101837.91;6122708;23;20021;-89
2024/03/07 14:47:10;;;;;;;16.40;10.90;;;;;;;8.69;48.05;101841.31;6197245;23;20026;-90
2024/03/07 14:49:38;;;;;;;17.20;11.13;;;;;;;8.50;48.91;101835.06;6123477;23;20075;-89
2024/03/07 14:52:12;;;;;;;16.03;10.77;;;;;;;8.55;48.46;101829.81;6249775;22;20021;-89
2024/03/07 14:54:41;;;;;;;16.63;11.38;;;;;;;8.61;48.27;101827.22;6219434;23;20429;-88
2024/03/07 14:57:10;;;;;;;20.37;11.73;;;;;;;8.48;48.63;101835.91;6249090;22;20386;-89
2024/03/07 14:59:40;;;;;;;18.13;11.17;;;;;;;8.31;48.35;101833.09;6099150;23;20018;-89
2024/03/07 15:02:10;;;;;;;15.00;10.20;;;;;;;8.29;48.74;101827.84;6123025;23;20438;-90
2024/03/07 15:04:39;;;;;;;19.13;11.10;;;;;;;8.23;49.27;101827.78;6248037;22;20037;-89
2024/03/07 15:07:09;;;;;;;17.70;10.97;;;;;;;8.16;49.34;101831.25;6097982;23;20369;-90
2024/03/07 15:09:38;;;;;;;17.87;10.77;;;;;;;8.08;49.52;101827.69;6098715;23;20021;-89
2024/03/07 15:12:06;;;;;;;17.13;11.63;;;;;;;8.09;49.42;101825.06;6097959;23;20386;-89
2024/03/07 15:14:34;;;;;;;18.03;10.43;;;;;;;8.23;50.05;101832.16;6248783;22;20087;-88
2024/03/07 15:17:06;;;;;;;14.90;10.00;;;;;;;8.21;48.43;101824.25;6123490;23;20348;-89
2024/03/07 15:19:37;;;;;;;17.23;10.33;;;;;;;8.12;47.98;101824.19;6148215;22;20048;-89
2024/03/07 15:22:04;;;;;;;15.90;9.70;;;;;;;7.90;47.67;101818.75;6074579;23;20449;-89
2024/03/07 15:24:34;;;;;;;16.97;9.67;;;;;;;8.00;48.59;101821.47;6097513;23;20040;-89
2024/03/07 15:27:01;;;;;;;13.60;8.93;;;;;;;7.95;47.85;101816.16;6097507;23;20022;-88
2024/03/07 15:29:29;;;;;;;16.37;9.97;;;;;;;7.99;48.69;101814.41;6121803;23;20457;-89
2024/03/07 15:31:56;;;;;;;13.40;9.03;;;;;;;7.98;48.87;101816.16;6074125;23;20028;-90
2024/03/07 15:34:23;;;;;;;13.13;8.63;;;;;;;7.96;50.11;101817.03;6122536;23;20026;-88
2024/03/07 15:44:51;;;;;;;16.00;9.13;;;;;;;7.55;49.29;101821.03;6238338;23;20024;-88
2024/03/07 15:47:20;;;;;;;13.97;8.67;;;;;;;7.50;50.55;101814.84;6213122;23;20047;-92
2024/03/07 15:49:47;;;;;;;13.70;8.47;;;;;;;7.53;50.50;101820.13;6189644;23;20024;-91
2024/03/07 15:52:14;;;;;;;14.33;9.20;;;;;;;7.45;50.26;101813.91;6167654;23;20027;-92
2024/03/07 15:54:41;;;;;;;14.63;9.03;;;;;;;7.48;50.49;101818.31;6194032;23;20031;-89
2024/03/07 15:57:09;;;;;;;14.90;9.07;;;;;;;7.35;51.79;101806.78;6168901;23;20019;-92
2024/03/07 15:59:37;;;;;;;15.90;9.10;;;;;;;7.27;52.21;101817.22;6218191;23;20016;-92
2024/03/07 16:02:05;;;;;;;14.67;8.80;;;;;;;7.30;50.25;101811.09;6194551;23;20031;-91
2024/03/07 16:04:32;;;;;;;16.37;9.03;;;;;;;7.06;51.76;101814.31;6170037;23;20495;-91
2024/03/07 16:06:59;;;;;;;11.30;7.50;;;;;;;7.14;52.68;101812.66;6246970;23;20044;-92
2024/03/07 16:09:26;;;;;;;15.07;9.10;;;;;;;7.13;52.04;101813.53;6194487;23;20364;-91
2024/03/07 16:11:53;;;;;;;16.23;9.27;;;;;;;7.05;52.52;101804.69;6196008;23;20027;-93
2024/03/07 16:14:21;;;;;;;17.37;9.50;;;;;;;6.84;53.70;101801.81;6195024;23;20020;-91
2024/03/07 16:16:48;;;;;;;15.10;8.90;;;;;;;6.78;53.88;101803.47;6197654;23;20471;-92
2024/03/07 16:19:15;;;;;;;14.87;8.40;;;;;;;6.78;55.12;101802.59;6194649;23;20027;-92
2024/03/07 16:21:48;;;;;;;17.90;9.57;;;;;;;6.65;55.70;101803.31;6194261;23;20027;-92
2024/03/07 16:24:16;;;;;;;17.73;10.20;;;;;;;6.65;55.63;101813.81;6192549;23;20110;-91
2024/03/07 16:26:44;;;;;;;12.07;8.37;;;;;;;6.44;55.59;101796.88;6217709;23;20059;-91
2024/03/07 16:29:12;;;;;;;15.67;9.40;;;;;;;6.35;56.43;101803.72;6244254;22;20075;-91
2024/03/07 16:31:39;;;;;;;12.97;8.60;;;;;;;6.36;56.42;101803.75;6217178;23;20024;-92
2024/03/07 16:34:06;;;;;;;14.77;8.53;;;;;;;6.08;57.15;101809.44;6192151;23;20024;-91
2024/03/07 16:36:33;;;;;;;14.27;8.67;;;;;;;6.04;57.70;101804.97;6191693;23;20470;-91
2024/03/07 16:39:06;;;;;;;15.53;8.77;;;;;;;5.84;57.70;101813.38;6191137;23;20082;-92
2024/03/07 16:41:34;;;;;;;14.80;8.55;;;;;;;5.78;58.34;101807.13;6217398;23;20020;-91
2024/03/07 16:44:02;;;;;;;15.27;8.70;;;;;;;5.73;58.56;101806.19;6216705;23;20028;-92
2024/03/07 16:46:29;;;;;;;13.47;8.77;;;;;;;5.65;58.98;101804.31;6166463;23;20020;-92
2024/03/07 16:48:56;;;;;;;15.33;8.63;;;;;;;5.61;58.89;101809.44;6190490;23;20020;-91
2024/03/07 16:51:23;;;;;;;13.93;8.70;;;;;;;5.47;60.03;101803.97;6215295;23;20039;-92
2024/03/07 16:54:11;;;;;;;16.27;8.70;;;;;;;5.32;60.18;101801.94;6199124;23;20024;-91
2024/03/07 16:56:42;;;;;;;17.47;8.27;;;;;;;5.25;60.80;101805.28;6190564;23;20422;-91
2024/03/07 16:59:10;;;;;;;13.50;8.33;;;;;;;5.03;61.31;101803.97;6190343;23;20016;-91
2024/03/07 17:01:44;;;;;;;13.97;8.40;;;;;;;4.86;61.76;101813.22;6190956;23;20024;-91
2024/03/07 17:04:12;;;;;;;14.25;8.40;;;;;;;4.83;62.88;101813.16;6216894;23;20489;-91
2024/03/07 17:06:40;;;;;;;15.90;8.53;;;;;;;4.59;64.17;101815.22;6193764;23;20055;-90
2024/03/07 17:09:11;;;;;;;14.83;8.77;;;;;;;4.57;64.36;101816.94;6194707;23;20020;-91
2024/03/07 17:11:40;;;;;;;14.07;7.70;;;;;;;4.45;64.37;101813.16;6216644;23;20024;-91
2024/03/07 17:14:09;;;;;;;16.17;8.93;;;;;;;4.36;64.95;101823.44;6240788;23;20031;-89
2024/03/07 17:16:37;;;;;;;18.57;9.87;;;;;;;4.36;65.07;101820.81;6190819;23;20090;-91
2024/03/07 17:19:09;;;;;;;13.40;7.63;;;;;;;4.28;65.42;101824.09;6190857;23;20020;-91
2024/03/07 17:21:37;;;;;;;15.67;8.97;;;;;;;4.11;66.89;101824.56;6216464;23;20024;-91
2024/03/07 17:24:04;;;;;;;14.23;8.63;;;;;;;3.97;67.44;101825.97;6216529;23;20020;-91
2024/03/07 17:26:31;;;;;;;13.17;8.60;;;;;;;3.98;67.61;101835.59;6213144;23;20020;-90
2024/03/07 17:28:59;;;;;;;16.63;9.17;;;;;;;4.02;67.57;101826.09;6245939;22;20020;-92
2024/03/07 17:31:26;;;;;;;17.57;8.90;;;;;;;3.95;67.38;101825.94;6190706;23;20032;-92
2024/03/07 17:33:56;;;;;;;17.67;8.87;;;;;;;3.78;68.62;101827.22;6215644;23;20024;-91
2024/03/07 17:36:23;;;;;;;16.03;9.10;;;;;;;3.71;69.31;101827.94;6190692;23;20362;-91
2024/03/07 17:38:50;;;;;;;17.60;10.03;;;;;;;3.64;69.80;101831.22;6219240;23;20394;-92
2024/03/07 17:41:21;;;;;;;15.27;8.93;;;;;;;3.48;70.53;101823.81;6168631;23;20469;-92
2024/03/07 17:43:49;;;;;;;17.07;8.17;;;;;;;3.33;71.43;101833.00;6217566;23;20016;-93
2024/03/07 17:46:19;;;;;;;18.40;9.63;;;;;;;3.35;71.46;101833.91;6217241;23;20027;-91
2024/03/07 17:48:48;;;;;;;15.20;8.97;;;;;;;3.33;72.14;101824.28;6192861;23;20028;-93
2024/03/07 17:51:15;;;;;;;14.57;8.07;;;;;;;3.27;72.19;101829.31;6190095;23;20032;-91
2024/03/07 17:53:44;;;;;;;17.10;8.97;;;;;;;3.02;74.09;101828.63;6189421;23;20039;-93
2024/03/07 17:56:11;;;;;;;14.30;8.60;;;;;;;2.90;74.70;101832.63;6214471;23;20023;-92
2024/03/07 17:58:38;;;;;;;14.00;8.47;;;;;;;2.78;75.66;101830.53;6189161;23;20024;-91
2024/03/07 18:01:06;;;;;;;14.87;8.37;;;;;;;2.71;76.15;101832.06;6188938;23;20074;-92
2024/03/07 18:03:33;;;;;;;17.33;8.87;;;;;;;2.49;77.71;101842.69;6190015;23;20030;-92
2024/03/07 18:06:05;;;;;;;17.30;9.13;;;;;;;2.55;77.77;101840.28;6166875;23;20020;-92
2024/03/07 18:08:34;;;;;;;17.07;9.00;;;;;;;2.50;78.36;101844.44;6213914;23;20062;-92
2024/03/07 18:11:12;;;;;;;15.37;8.93;;;;;;;2.44;78.60;101849.50;6217262;23;20027;-91
2024/03/07 18:13:42;;;;;;;16.23;8.67;;;;;;;2.36;79.32;101840.53;6190271;23;20067;-91
2024/03/07 18:16:10;;;;;;;16.07;9.67;;;;;;;2.23;80.10;101841.84;6214532;23;20083;-91
2024/03/07 18:18:38;;;;;;;17.93;9.60;;;;;;;2.19;80.74;101843.50;6214073;23;20024;-92
2024/03/07 18:21:08;;;;;;;17.90;9.80;;;;;;;2.14;80.82;101849.38;6214039;23;20020;-92